sensor_id;sensor_type;location;lat;lon;timestamp;P1;durP1;ratioP1;P2;durP2;ratioP2
62258;SDS011;48241;48.824;10.102;2022-10-26T00:00:24;6.10;;;1.10;;
62258;SDS011;48241;48.824;10.102;2022-10-26T00:02:52;5.10;;;1.20;;
62258;SDS011;48241;48.824;10.102;2022-10-26T00:05:19;3.20;;;1.30;;
62258;SDS011;48241;48.824;10.102;2022-10-26T00:07:46;4.35;;;1.55;;
62258;SDS011;48241;48.824;10.102;2022-10-26T00:10:11;4.07;;;1.00;;
62258;SDS011;48241;48.824;10.102;2022-10-26T00:12:38;4.07;;;1.40;;
62258;SDS011;48241;48.824;10.102;2022-10-26T00:15:04;4.50;;;1.50;;
62258;SDS011;48241;48.824;10.102;2022-10-26T00:17:31;4.53;;;1.40;;
62258;SDS011;48241;48.824;10.102;2022-10-26T00:19:56;4.28;;;1.30;;
62258;SDS011;48241;48.824;10.102;2022-10-26T00:22:22;3.00;;;1.20;;
62258;SDS011;48241;48.824;10.102;2022-10-26T00:24:47;3.38;;;1.25;;
62258;SDS011;48241;48.824;10.102;2022-10-26T00:27:13;6.90;;;1.58;;
62258;SDS011;48241;48.824;10.102;2022-10-26T00:29:39;4.43;;;1.48;;
62258;SDS011;48241;48.824;10.102;2022-10-26T00:32:04;5.13;;;1.50;;
62258;SDS011;48241;48.824;10.102;2022-10-26T00:34:30;4.68;;;1.38;;
62258;SDS011;48241;48.824;10.102;2022-10-26T00:36:56;3.55;;;1.50;;
62258;SDS011;48241;48.824;10.102;2022-10-26T00:39:22;3.92;;;1.40;;
62258;SDS011;48241;48.824;10.102;2022-10-26T00:41:48;4.13;;;1.17;;
62258;SDS011;48241;48.824;10.102;2022-10-26T00:47:10;2.78;;;1.20;;
62258;SDS011;48241;48.824;10.102;2022-10-26T00:50:00;5.35;;;1.27;;
62258;SDS011;48241;48.824;10.102;2022-10-26T00:52:31;4.35;;;1.02;;
62258;SDS011;48241;48.824;10.102;2022-10-26T00:54:57;2.15;;;1.05;;
62258;SDS011;48241;48.824;10.102;2022-10-26T00:57:23;4.97;;;1.20;;
62258;SDS011;48241;48.824;10.102;2022-10-26T00:59:50;3.13;;;1.40;;
62258;SDS011;48241;48.824;10.102;2022-10-26T01:02:19;5.57;;;1.27;;
62258;SDS011;48241;48.824;10.102;2022-10-26T01:04:45;3.40;;;1.30;;
62258;SDS011;48241;48.824;10.102;2022-10-26T01:07:12;4.05;;;1.17;;
62258;SDS011;48241;48.824;10.102;2022-10-26T01:09:38;4.95;;;1.40;;
62258;SDS011;48241;48.824;10.102;2022-10-26T01:12:04;3.10;;;0.88;;
62258;SDS011;48241;48.824;10.102;2022-10-26T01:14:30;3.95;;;1.45;;
62258;SDS011;48241;48.824;10.102;2022-10-26T01:17:02;4.80;;;1.27;;
62258;SDS011;48241;48.824;10.102;2022-10-26T01:19:42;3.70;;;1.40;;
62258;SDS011;48241;48.824;10.102;2022-10-26T01:22:41;5.25;;;1.33;;
62258;SDS011;48241;48.824;10.102;2022-10-26T01:28:06;5.10;;;1.40;;
62258;SDS011;48241;48.824;10.102;2022-10-26T01:30:45;3.75;;;1.10;;
62258;SDS011;48241;48.824;10.102;2022-10-26T01:41:38;2.35;;;1.20;;
62258;SDS011;48241;48.824;10.102;2022-10-26T01:44:23;3.13;;;1.25;;
62258;SDS011;48241;48.824;10.102;2022-10-26T01:46:53;2.13;;;0.80;;
62258;SDS011;48241;48.824;10.102;2022-10-26T01:49:22;4.70;;;1.25;;
62258;SDS011;48241;48.824;10.102;2022-10-26T01:51:52;6.32;;;1.40;;
62258;SDS011;48241;48.824;10.102;2022-10-26T01:54:17;5.10;;;1.48;;
62258;SDS011;48241;48.824;10.102;2022-10-26T01:56:50;4.93;;;1.23;;
62258;SDS011;48241;48.824;10.102;2022-10-26T01:59:19;4.65;;;1.38;;
62258;SDS011;48241;48.824;10.102;2022-10-26T02:12:26;6.95;;;1.45;;
62258;SDS011;48241;48.824;10.102;2022-10-26T02:15:06;2.65;;;1.25;;
62258;SDS011;48241;48.824;10.102;2022-10-26T02:17:48;5.10;;;1.40;;
62258;SDS011;48241;48.824;10.102;2022-10-26T02:20:21;2.10;;;1.13;;
62258;SDS011;48241;48.824;10.102;2022-10-26T02:22:51;3.50;;;1.08;;
62258;SDS011;48241;48.824;10.102;2022-10-26T02:25:21;3.80;;;1.38;;
62258;SDS011;48241;48.824;10.102;2022-10-26T02:27:51;2.83;;;0.90;;
62258;SDS011;48241;48.824;10.102;2022-10-26T02:30:24;6.22;;;1.17;;
62258;SDS011;48241;48.824;10.102;2022-10-26T02:32:51;2.65;;;1.05;;
62258;SDS011;48241;48.824;10.102;2022-10-26T02:35:21;6.00;;;1.30;;
62258;SDS011;48241;48.824;10.102;2022-10-26T02:37:55;3.47;;;1.23;;
62258;SDS011;48241;48.824;10.102;2022-10-26T02:40:24;5.70;;;1.50;;
62258;SDS011;48241;48.824;10.102;2022-10-26T02:42:51;4.07;;;1.17;;
62258;SDS011;48241;48.824;10.102;2022-10-26T02:45:23;4.72;;;1.52;;
62258;SDS011;48241;48.824;10.102;2022-10-26T02:47:51;2.72;;;1.33;;
62258;SDS011;48241;48.824;10.102;2022-10-26T02:50:19;3.95;;;1.17;;
62258;SDS011;48241;48.824;10.102;2022-10-26T02:55:23;4.28;;;1.40;;
62258;SDS011;48241;48.824;10.102;2022-10-26T02:57:54;6.28;;;1.50;;
62258;SDS011;48241;48.824;10.102;2022-10-26T03:00:23;2.75;;;1.42;;
62258;SDS011;48241;48.824;10.102;2022-10-26T03:02:53;4.75;;;1.80;;
62258;SDS011;48241;48.824;10.102;2022-10-26T03:05:27;4.05;;;1.40;;
62258;SDS011;48241;48.824;10.102;2022-10-26T03:07:56;5.53;;;1.80;;
62258;SDS011;48241;48.824;10.102;2022-10-26T03:10:23;7.55;;;1.77;;
62258;SDS011;48241;48.824;10.102;2022-10-26T03:12:48;6.88;;;1.88;;
62258;SDS011;48241;48.824;10.102;2022-10-26T03:15:14;1.42;;;1.05;;
62258;SDS011;48241;48.824;10.102;2022-10-26T03:17:40;6.70;;;1.63;;
62258;SDS011;48241;48.824;10.102;2022-10-26T03:20:06;3.40;;;1.60;;
62258;SDS011;48241;48.824;10.102;2022-10-26T03:22:32;5.68;;;1.92;;
62258;SDS011;48241;48.824;10.102;2022-10-26T03:24:57;5.32;;;1.90;;
62258;SDS011;48241;48.824;10.102;2022-10-26T03:27:23;3.80;;;1.42;;
62258;SDS011;48241;48.824;10.102;2022-10-26T03:29:49;2.88;;;1.40;;
62258;SDS011;48241;48.824;10.102;2022-10-26T03:32:14;4.72;;;2.10;;
62258;SDS011;48241;48.824;10.102;2022-10-26T03:34:40;6.88;;;1.48;;
62258;SDS011;48241;48.824;10.102;2022-10-26T03:37:05;4.18;;;1.50;;
62258;SDS011;48241;48.824;10.102;2022-10-26T03:39:31;5.82;;;1.70;;
62258;SDS011;48241;48.824;10.102;2022-10-26T03:41:56;5.72;;;1.50;;
62258;SDS011;48241;48.824;10.102;2022-10-26T03:44:22;6.15;;;1.45;;
62258;SDS011;48241;48.824;10.102;2022-10-26T03:46:47;3.97;;;1.70;;
62258;SDS011;48241;48.824;10.102;2022-10-26T03:49:13;3.50;;;1.52;;
62258;SDS011;48241;48.824;10.102;2022-10-26T03:51:38;6.05;;;1.40;;
62258;SDS011;48241;48.824;10.102;2022-10-26T03:54:05;5.00;;;1.42;;
62258;SDS011;48241;48.824;10.102;2022-10-26T03:56:30;5.82;;;1.50;;
62258;SDS011;48241;48.824;10.102;2022-10-26T03:58:56;8.20;;;1.40;;
62258;SDS011;48241;48.824;10.102;2022-10-26T04:01:22;4.25;;;1.55;;
62258;SDS011;48241;48.824;10.102;2022-10-26T04:03:47;5.25;;;1.55;;
62258;SDS011;48241;48.824;10.102;2022-10-26T04:06:13;2.17;;;1.27;;
62258;SDS011;48241;48.824;10.102;2022-10-26T04:08:39;4.28;;;1.77;;
62258;SDS011;48241;48.824;10.102;2022-10-26T04:11:04;6.10;;;1.70;;
62258;SDS011;48241;48.824;10.102;2022-10-26T04:13:30;4.45;;;1.30;;
62258;SDS011;48241;48.824;10.102;2022-10-26T04:15:56;3.30;;;1.65;;
62258;SDS011;48241;48.824;10.102;2022-10-26T04:18:22;5.82;;;1.98;;
62258;SDS011;48241;48.824;10.102;2022-10-26T04:20:48;3.88;;;1.42;;
62258;SDS011;48241;48.824;10.102;2022-10-26T04:23:14;3.47;;;1.95;;
62258;SDS011;48241;48.824;10.102;2022-10-26T04:25:42;2.28;;;1.50;;
62258;SDS011;48241;48.824;10.102;2022-10-26T04:28:08;7.20;;;2.47;;
62258;SDS011;48241;48.824;10.102;2022-10-26T04:30:35;3.72;;;2.10;;
62258;SDS011;48241;48.824;10.102;2022-10-26T04:33:02;7.97;;;2.40;;
62258;SDS011;48241;48.824;10.102;2022-10-26T04:35:29;3.33;;;1.80;;
62258;SDS011;48241;48.824;10.102;2022-10-26T04:37:58;5.53;;;2.13;;
62258;SDS011;48241;48.824;10.102;2022-10-26T04:40:29;4.10;;;1.83;;
62258;SDS011;48241;48.824;10.102;2022-10-26T04:42:56;4.45;;;2.28;;
62258;SDS011;48241;48.824;10.102;2022-10-26T04:45:22;4.05;;;1.90;;
62258;SDS011;48241;48.824;10.102;2022-10-26T04:47:57;2.72;;;1.60;;
62258;SDS011;48241;48.824;10.102;2022-10-26T04:50:34;5.45;;;1.85;;
62258;SDS011;48241;48.824;10.102;2022-10-26T04:53:00;8.23;;;2.15;;
62258;SDS011;48241;48.824;10.102;2022-10-26T04:55:26;4.40;;;1.80;;
62258;SDS011;48241;48.824;10.102;2022-10-26T04:57:51;4.32;;;1.73;;
62258;SDS011;48241;48.824;10.102;2022-10-26T05:00:17;4.18;;;1.67;;
62258;SDS011;48241;48.824;10.102;2022-10-26T05:02:43;3.95;;;1.75;;
62258;SDS011;48241;48.824;10.102;2022-10-26T05:05:08;5.28;;;1.75;;
62258;SDS011;48241;48.824;10.102;2022-10-26T05:07:34;3.90;;;1.58;;
62258;SDS011;48241;48.824;10.102;2022-10-26T05:09:59;2.95;;;1.95;;
62258;SDS011;48241;48.824;10.102;2022-10-26T05:12:25;6.43;;;2.03;;
62258;SDS011;48241;48.824;10.102;2022-10-26T05:14:50;3.10;;;2.08;;
62258;SDS011;48241;48.824;10.102;2022-10-26T05:17:16;5.00;;;1.83;;
62258;SDS011;48241;48.824;10.102;2022-10-26T05:19:42;4.22;;;1.80;;
62258;SDS011;48241;48.824;10.102;2022-10-26T05:22:07;6.25;;;1.90;;
62258;SDS011;48241;48.824;10.102;2022-10-26T05:24:47;4.32;;;2.10;;
62258;SDS011;48241;48.824;10.102;2022-10-26T05:27:15;4.90;;;1.90;;
62258;SDS011;48241;48.824;10.102;2022-10-26T05:29:43;4.72;;;2.15;;
62258;SDS011;48241;48.824;10.102;2022-10-26T05:32:08;7.65;;;2.70;;
62258;SDS011;48241;48.824;10.102;2022-10-26T05:34:34;6.68;;;2.72;;
62258;SDS011;48241;48.824;10.102;2022-10-26T05:36:59;2.95;;;2.35;;
62258;SDS011;48241;48.824;10.102;2022-10-26T05:39:25;6.55;;;2.83;;
62258;SDS011;48241;48.824;10.102;2022-10-26T05:41:51;7.03;;;2.85;;
62258;SDS011;48241;48.824;10.102;2022-10-26T05:44:16;8.85;;;3.58;;
62258;SDS011;48241;48.824;10.102;2022-10-26T05:46:42;11.75;;;3.58;;
62258;SDS011;48241;48.824;10.102;2022-10-26T05:49:07;4.72;;;2.72;;
62258;SDS011;48241;48.824;10.102;2022-10-26T05:51:33;6.65;;;3.45;;
62258;SDS011;48241;48.824;10.102;2022-10-26T05:54:01;7.80;;;4.30;;
62258;SDS011;48241;48.824;10.102;2022-10-26T05:56:36;8.35;;;4.43;;
62258;SDS011;48241;48.824;10.102;2022-10-26T05:59:07;9.20;;;4.18;;
62258;SDS011;48241;48.824;10.102;2022-10-26T06:04:17;5.55;;;4.40;;
62258;SDS011;48241;48.824;10.102;2022-10-26T06:06:45;5.45;;;3.97;;
62258;SDS011;48241;48.824;10.102;2022-10-26T06:09:12;3.90;;;3.17;;
62258;SDS011;48241;48.824;10.102;2022-10-26T06:11:38;7.63;;;3.55;;
62258;SDS011;48241;48.824;10.102;2022-10-26T06:14:04;5.18;;;3.22;;
62258;SDS011;48241;48.824;10.102;2022-10-26T06:19:32;6.03;;;3.78;;
62258;SDS011;48241;48.824;10.102;2022-10-26T06:22:19;8.57;;;3.90;;
62258;SDS011;48241;48.824;10.102;2022-10-26T06:25:18;6.95;;;3.83;;
62258;SDS011;48241;48.824;10.102;2022-10-26T06:28:01;5.88;;;3.33;;
62258;SDS011;48241;48.824;10.102;2022-10-26T06:30:39;6.78;;;3.85;;
62258;SDS011;48241;48.824;10.102;2022-10-26T06:33:07;6.20;;;3.17;;
62258;SDS011;48241;48.824;10.102;2022-10-26T06:38:13;5.78;;;2.80;;
62258;SDS011;48241;48.824;10.102;2022-10-26T06:40:42;4.40;;;2.80;;
62258;SDS011;48241;48.824;10.102;2022-10-26T06:43:11;5.97;;;2.42;;
62258;SDS011;48241;48.824;10.102;2022-10-26T06:45:44;6.43;;;2.78;;
62258;SDS011;48241;48.824;10.102;2022-10-26T06:48:16;4.65;;;2.10;;
62258;SDS011;48241;48.824;10.102;2022-10-26T06:50:49;3.25;;;1.20;;
62258;SDS011;48241;48.824;10.102;2022-10-26T06:53:28;6.22;;;1.92;;
62258;SDS011;48241;48.824;10.102;2022-10-26T06:58:29;7.47;;;2.65;;
62258;SDS011;48241;48.824;10.102;2022-10-26T07:00:58;4.25;;;2.13;;
62258;SDS011;48241;48.824;10.102;2022-10-26T07:03:24;4.68;;;2.17;;
62258;SDS011;48241;48.824;10.102;2022-10-26T07:05:57;3.50;;;1.35;;
62258;SDS011;48241;48.824;10.102;2022-10-26T07:08:23;4.18;;;2.47;;
62258;SDS011;48241;48.824;10.102;2022-10-26T07:10:52;3.97;;;2.05;;
62258;SDS011;48241;48.824;10.102;2022-10-26T07:13:38;6.95;;;2.33;;
62258;SDS011;48241;48.824;10.102;2022-10-26T07:16:15;4.47;;;2.28;;
62258;SDS011;48241;48.824;10.102;2022-10-26T07:18:41;3.85;;;2.10;;
62258;SDS011;48241;48.824;10.102;2022-10-26T07:21:18;5.07;;;2.20;;
62258;SDS011;48241;48.824;10.102;2022-10-26T07:23:55;4.03;;;2.13;;
62258;SDS011;48241;48.824;10.102;2022-10-26T07:26:21;4.60;;;1.80;;
62258;SDS011;48241;48.824;10.102;2022-10-26T07:28:57;6.55;;;2.15;;
62258;SDS011;48241;48.824;10.102;2022-10-26T07:31:27;6.30;;;2.38;;
62258;SDS011;48241;48.824;10.102;2022-10-26T07:33:53;4.97;;;2.90;;
62258;SDS011;48241;48.824;10.102;2022-10-26T07:36:21;4.88;;;2.53;;
62258;SDS011;48241;48.824;10.102;2022-10-26T07:38:56;7.47;;;2.10;;
62258;SDS011;48241;48.824;10.102;2022-10-26T07:41:24;4.03;;;1.60;;
62258;SDS011;48241;48.824;10.102;2022-10-26T07:44:02;4.13;;;1.90;;
62258;SDS011;48241;48.824;10.102;2022-10-26T07:46:36;6.00;;;1.80;;
62258;SDS011;48241;48.824;10.102;2022-10-26T07:49:05;2.60;;;1.85;;
62258;SDS011;48241;48.824;10.102;2022-10-26T07:51:49;4.05;;;1.75;;
62258;SDS011;48241;48.824;10.102;2022-10-26T07:54:45;3.88;;;2.08;;
62258;SDS011;48241;48.824;10.102;2022-10-26T07:57:38;4.70;;;1.65;;
62258;SDS011;48241;48.824;10.102;2022-10-26T08:00:10;4.25;;;1.90;;
62258;SDS011;48241;48.824;10.102;2022-10-26T08:02:38;6.35;;;1.90;;
62258;SDS011;48241;48.824;10.102;2022-10-26T08:05:04;6.38;;;1.50;;
62258;SDS011;48241;48.824;10.102;2022-10-26T08:07:30;5.45;;;1.80;;
62258;SDS011;48241;48.824;10.102;2022-10-26T08:09:56;3.60;;;1.70;;
62258;SDS011;48241;48.824;10.102;2022-10-26T08:12:21;4.90;;;1.85;;
62258;SDS011;48241;48.824;10.102;2022-10-26T08:14:47;3.65;;;1.60;;
62258;SDS011;48241;48.824;10.102;2022-10-26T08:17:13;4.22;;;1.83;;
62258;SDS011;48241;48.824;10.102;2022-10-26T08:19:38;4.60;;;1.45;;
62258;SDS011;48241;48.824;10.102;2022-10-26T08:22:04;4.75;;;1.60;;
62258;SDS011;48241;48.824;10.102;2022-10-26T08:24:30;7.35;;;1.48;;
62258;SDS011;48241;48.824;10.102;2022-10-26T08:26:56;5.07;;;1.80;;
62258;SDS011;48241;48.824;10.102;2022-10-26T08:29:21;3.65;;;1.55;;
62258;SDS011;48241;48.824;10.102;2022-10-26T08:31:47;6.68;;;1.70;;
62258;SDS011;48241;48.824;10.102;2022-10-26T08:34:13;5.32;;;1.65;;
62258;SDS011;48241;48.824;10.102;2022-10-26T08:36:39;5.82;;;1.92;;
62258;SDS011;48241;48.824;10.102;2022-10-26T08:39:04;3.65;;;1.58;;
62258;SDS011;48241;48.824;10.102;2022-10-26T08:41:34;4.60;;;2.00;;
62258;SDS011;48241;48.824;10.102;2022-10-26T08:44:04;4.50;;;1.60;;
62258;SDS011;48241;48.824;10.102;2022-10-26T08:52:47;5.60;;;1.80;;
62258;SDS011;48241;48.824;10.102;2022-10-26T08:55:33;5.43;;;1.65;;
62258;SDS011;48241;48.824;10.102;2022-10-26T08:58:17;8.63;;;2.00;;
62258;SDS011;48241;48.824;10.102;2022-10-26T09:00:47;7.32;;;1.60;;
62258;SDS011;48241;48.824;10.102;2022-10-26T09:03:15;5.85;;;1.63;;
62258;SDS011;48241;48.824;10.102;2022-10-26T09:08:25;6.97;;;1.70;;
62258;SDS011;48241;48.824;10.102;2022-10-26T09:11:03;4.38;;;1.80;;
62258;SDS011;48241;48.824;10.102;2022-10-26T09:16:52;5.10;;;1.83;;
62258;SDS011;48241;48.824;10.102;2022-10-26T09:19:39;5.90;;;1.92;;
62258;SDS011;48241;48.824;10.102;2022-10-26T09:22:38;9.15;;;2.03;;
62258;SDS011;48241;48.824;10.102;2022-10-26T09:25:11;5.78;;;2.17;;
62258;SDS011;48241;48.824;10.102;2022-10-26T09:27:53;7.53;;;1.80;;
62258;SDS011;48241;48.824;10.102;2022-10-26T09:30:22;4.28;;;1.52;;
62258;SDS011;48241;48.824;10.102;2022-10-26T09:32:49;4.55;;;1.77;;
62258;SDS011;48241;48.824;10.102;2022-10-26T09:35:22;6.22;;;1.67;;
62258;SDS011;48241;48.824;10.102;2022-10-26T09:37:52;7.35;;;2.03;;
62258;SDS011;48241;48.824;10.102;2022-10-26T09:40:30;4.18;;;1.63;;
62258;SDS011;48241;48.824;10.102;2022-10-26T09:43:03;4.95;;;1.83;;
62258;SDS011;48241;48.824;10.102;2022-10-26T09:45:47;8.02;;;2.10;;
62258;SDS011;48241;48.824;10.102;2022-10-26T09:48:33;8.88;;;2.00;;
62258;SDS011;48241;48.824;10.102;2022-10-26T09:51:04;6.50;;;1.63;;
62258;SDS011;48241;48.824;10.102;2022-10-26T09:53:31;6.25;;;1.70;;
62258;SDS011;48241;48.824;10.102;2022-10-26T09:56:04;4.85;;;1.55;;
62258;SDS011;48241;48.824;10.102;2022-10-26T09:58:39;5.45;;;2.00;;
62258;SDS011;48241;48.824;10.102;2022-10-26T10:04:07;6.70;;;1.60;;
62258;SDS011;48241;48.824;10.102;2022-10-26T10:09:27;7.00;;;2.00;;
62258;SDS011;48241;48.824;10.102;2022-10-26T10:12:20;6.10;;;1.70;;
62258;SDS011;48241;48.824;10.102;2022-10-26T10:14:55;5.30;;;1.83;;
62258;SDS011;48241;48.824;10.102;2022-10-26T10:23:09;3.75;;;1.70;;
62258;SDS011;48241;48.824;10.102;2022-10-26T10:29:08;7.70;;;2.40;;
62258;SDS011;48241;48.824;10.102;2022-10-26T10:32:10;7.90;;;2.38;;
62258;SDS011;48241;48.824;10.102;2022-10-26T10:35:21;8.03;;;2.10;;
62258;SDS011;48241;48.824;10.102;2022-10-26T10:37:48;7.82;;;2.40;;
62258;SDS011;48241;48.824;10.102;2022-10-26T10:40:18;7.45;;;2.92;;
62258;SDS011;48241;48.824;10.102;2022-10-26T10:42:47;7.43;;;2.97;;
62258;SDS011;48241;48.824;10.102;2022-10-26T10:47:57;6.97;;;2.53;;
62258;SDS011;48241;48.824;10.102;2022-10-26T10:50:27;8.70;;;2.53;;
62258;SDS011;48241;48.824;10.102;2022-10-26T10:53:13;6.53;;;2.08;;
62258;SDS011;48241;48.824;10.102;2022-10-26T10:56:33;7.22;;;2.03;;
62258;SDS011;48241;48.824;10.102;2022-10-26T11:01:36;6.93;;;2.38;;
62258;SDS011;48241;48.824;10.102;2022-10-26T11:07:02;4.57;;;2.40;;
62258;SDS011;48241;48.824;10.102;2022-10-26T11:09:32;7.65;;;2.17;;
62258;SDS011;48241;48.824;10.102;2022-10-26T11:14:53;3.58;;;2.15;;
62258;SDS011;48241;48.824;10.102;2022-10-26T11:23:44;4.75;;;2.00;;
62258;SDS011;48241;48.824;10.102;2022-10-26T11:32:45;5.15;;;2.15;;
62258;SDS011;48241;48.824;10.102;2022-10-26T11:35:51;6.13;;;2.20;;
62258;SDS011;48241;48.824;10.102;2022-10-26T11:41:23;5.70;;;2.25;;
62258;SDS011;48241;48.824;10.102;2022-10-26T11:44:00;5.57;;;2.00;;
62258;SDS011;48241;48.824;10.102;2022-10-26T11:57:22;7.85;;;2.08;;
62258;SDS011;48241;48.824;10.102;2022-10-26T12:00:15;4.68;;;2.45;;
62258;SDS011;48241;48.824;10.102;2022-10-26T12:02:46;5.97;;;2.65;;
62258;SDS011;48241;48.824;10.102;2022-10-26T12:08:05;7.18;;;1.95;;
62258;SDS011;48241;48.824;10.102;2022-10-26T12:10:41;6.18;;;2.50;;
62258;SDS011;48241;48.824;10.102;2022-10-26T12:18:59;6.07;;;2.47;;
62258;SDS011;48241;48.824;10.102;2022-10-26T12:21:43;4.78;;;2.33;;
62258;SDS011;48241;48.824;10.102;2022-10-26T12:26:58;4.00;;;2.08;;
62258;SDS011;48241;48.824;10.102;2022-10-26T12:31:54;5.20;;;2.10;;
62258;SDS011;48241;48.824;10.102;2022-10-26T12:37:10;5.60;;;2.20;;
62258;SDS011;48241;48.824;10.102;2022-10-26T12:39:46;6.70;;;2.40;;
62258;SDS011;48241;48.824;10.102;2022-10-26T12:52:54;6.93;;;2.30;;
62258;SDS011;48241;48.824;10.102;2022-10-26T12:55:40;6.55;;;2.35;;
62258;SDS011;48241;48.824;10.102;2022-10-26T12:58:36;5.43;;;2.65;;
62258;SDS011;48241;48.824;10.102;2022-10-26T13:01:20;6.00;;;2.20;;
62258;SDS011;48241;48.824;10.102;2022-10-26T13:04:06;7.18;;;2.60;;
62258;SDS011;48241;48.824;10.102;2022-10-26T13:12:25;9.02;;;2.38;;
62258;SDS011;48241;48.824;10.102;2022-10-26T13:14:59;6.30;;;2.60;;
62258;SDS011;48241;48.824;10.102;2022-10-26T13:17:30;6.53;;;2.50;;
62258;SDS011;48241;48.824;10.102;2022-10-26T13:20:04;5.35;;;2.50;;
62258;SDS011;48241;48.824;10.102;2022-10-26T13:22:31;7.68;;;2.70;;
62258;SDS011;48241;48.824;10.102;2022-10-26T13:24:58;6.40;;;2.60;;
62258;SDS011;48241;48.824;10.102;2022-10-26T13:32:51;7.75;;;2.30;;
62258;SDS011;48241;48.824;10.102;2022-10-26T13:35:20;7.03;;;2.58;;
62258;SDS011;48241;48.824;10.102;2022-10-26T13:37:48;4.93;;;2.30;;
62258;SDS011;48241;48.824;10.102;2022-10-26T13:40:17;6.20;;;2.55;;
62258;SDS011;48241;48.824;10.102;2022-10-26T13:42:49;6.13;;;2.35;;
62258;SDS011;48241;48.824;10.102;2022-10-26T13:45:35;8.32;;;2.30;;
62258;SDS011;48241;48.824;10.102;2022-10-26T13:48:16;5.43;;;2.33;;
62258;SDS011;48241;48.824;10.102;2022-10-26T13:53:17;6.22;;;2.40;;
62258;SDS011;48241;48.824;10.102;2022-10-26T13:56:15;8.07;;;2.65;;
62258;SDS011;48241;48.824;10.102;2022-10-26T13:59:10;6.40;;;2.35;;
62258;SDS011;48241;48.824;10.102;2022-10-26T14:01:38;6.18;;;2.28;;
62258;SDS011;48241;48.824;10.102;2022-10-26T14:04:17;8.63;;;2.28;;
62258;SDS011;48241;48.824;10.102;2022-10-26T14:09:34;6.30;;;2.30;;
62258;SDS011;48241;48.824;10.102;2022-10-26T14:11:59;6.53;;;2.28;;
62258;SDS011;48241;48.824;10.102;2022-10-26T14:14:32;4.68;;;2.20;;
62258;SDS011;48241;48.824;10.102;2022-10-26T14:17:01;6.93;;;2.28;;
62258;SDS011;48241;48.824;10.102;2022-10-26T14:19:28;6.15;;;2.15;;
62258;SDS011;48241;48.824;10.102;2022-10-26T14:21:57;6.07;;;2.17;;
62258;SDS011;48241;48.824;10.102;2022-10-26T14:24:26;7.03;;;2.30;;
62258;SDS011;48241;48.824;10.102;2022-10-26T14:26:54;6.90;;;2.17;;
62258;SDS011;48241;48.824;10.102;2022-10-26T14:29:20;6.95;;;2.15;;
62258;SDS011;48241;48.824;10.102;2022-10-26T14:31:48;6.55;;;2.35;;
62258;SDS011;48241;48.824;10.102;2022-10-26T14:34:14;6.68;;;2.50;;
62258;SDS011;48241;48.824;10.102;2022-10-26T14:36:48;4.97;;;2.17;;
62258;SDS011;48241;48.824;10.102;2022-10-26T14:39:43;5.07;;;2.30;;
62258;SDS011;48241;48.824;10.102;2022-10-26T14:44:54;8.38;;;2.00;;
62258;SDS011;48241;48.824;10.102;2022-10-26T14:47:31;5.50;;;1.95;;
62258;SDS011;48241;48.824;10.102;2022-10-26T14:49:59;5.97;;;2.28;;
62258;SDS011;48241;48.824;10.102;2022-10-26T14:52:29;6.47;;;2.00;;
62258;SDS011;48241;48.824;10.102;2022-10-26T14:55:20;5.63;;;1.88;;
62258;SDS011;48241;48.824;10.102;2022-10-26T14:57:45;7.50;;;2.22;;
62258;SDS011;48241;48.824;10.102;2022-10-26T15:00:13;9.73;;;2.40;;
62258;SDS011;48241;48.824;10.102;2022-10-26T15:02:48;5.20;;;2.00;;
62258;SDS011;48241;48.824;10.102;2022-10-26T15:05:27;4.78;;;2.05;;
62258;SDS011;48241;48.824;10.102;2022-10-26T15:07:56;5.78;;;2.00;;
62258;SDS011;48241;48.824;10.102;2022-10-26T15:13:10;7.28;;;1.77;;
62258;SDS011;48241;48.824;10.102;2022-10-26T15:15:43;6.43;;;2.10;;
62258;SDS011;48241;48.824;10.102;2022-10-26T15:18:42;8.55;;;2.05;;
62258;SDS011;48241;48.824;10.102;2022-10-26T15:21:02;7.88;;;2.35;;
62258;SDS011;48241;48.824;10.102;2022-10-26T15:23:31;6.93;;;2.33;;
62258;SDS011;48241;48.824;10.102;2022-10-26T15:25:57;9.48;;;2.50;;
62258;SDS011;48241;48.824;10.102;2022-10-26T15:28:36;7.20;;;1.77;;
62258;SDS011;48241;48.824;10.102;2022-10-26T15:31:05;5.35;;;2.10;;
62258;SDS011;48241;48.824;10.102;2022-10-26T15:33:34;8.82;;;2.13;;
62258;SDS011;48241;48.824;10.102;2022-10-26T15:36:23;11.93;;;2.90;;
62258;SDS011;48241;48.824;10.102;2022-10-26T15:38:49;8.02;;;2.95;;
62258;SDS011;48241;48.824;10.102;2022-10-26T15:43:54;6.82;;;2.67;;
62258;SDS011;48241;48.824;10.102;2022-10-26T15:46:21;6.63;;;2.08;;
62258;SDS011;48241;48.824;10.102;2022-10-26T15:48:54;11.35;;;2.60;;
62258;SDS011;48241;48.824;10.102;2022-10-26T15:51:22;5.25;;;2.00;;
62258;SDS011;48241;48.824;10.102;2022-10-26T15:53:48;5.90;;;1.90;;
62258;SDS011;48241;48.824;10.102;2022-10-26T15:56:15;13.63;;;2.42;;
62258;SDS011;48241;48.824;10.102;2022-10-26T15:58:42;4.88;;;1.88;;
62258;SDS011;48241;48.824;10.102;2022-10-26T16:01:21;5.82;;;2.17;;
62258;SDS011;48241;48.824;10.102;2022-10-26T16:03:48;6.70;;;2.30;;
62258;SDS011;48241;48.824;10.102;2022-10-26T16:08:50;5.78;;;2.15;;
62258;SDS011;48241;48.824;10.102;2022-10-26T16:11:17;7.05;;;2.33;;
62258;SDS011;48241;48.824;10.102;2022-10-26T16:13:43;6.45;;;2.22;;
62258;SDS011;48241;48.824;10.102;2022-10-26T16:16:10;6.43;;;2.33;;
62258;SDS011;48241;48.824;10.102;2022-10-26T16:18:37;10.30;;;2.30;;
62258;SDS011;48241;48.824;10.102;2022-10-26T16:21:10;10.02;;;2.80;;
62258;SDS011;48241;48.824;10.102;2022-10-26T16:23:46;8.85;;;2.08;;
62258;SDS011;48241;48.824;10.102;2022-10-26T16:26:13;5.45;;;2.40;;
62258;SDS011;48241;48.824;10.102;2022-10-26T16:28:39;5.53;;;2.10;;
62258;SDS011;48241;48.824;10.102;2022-10-26T16:31:06;10.73;;;2.08;;
62258;SDS011;48241;48.824;10.102;2022-10-26T16:33:34;5.38;;;2.10;;
62258;SDS011;48241;48.824;10.102;2022-10-26T16:36:00;11.98;;;2.83;;
62258;SDS011;48241;48.824;10.102;2022-10-26T16:38:27;5.35;;;2.53;;
62258;SDS011;48241;48.824;10.102;2022-10-26T16:41:11;8.75;;;2.65;;
62258;SDS011;48241;48.824;10.102;2022-10-26T16:43:39;5.72;;;2.22;;
62258;SDS011;48241;48.824;10.102;2022-10-26T16:48:34;7.43;;;2.40;;
62258;SDS011;48241;48.824;10.102;2022-10-26T16:51:07;8.60;;;2.35;;
62258;SDS011;48241;48.824;10.102;2022-10-26T16:53:35;6.65;;;2.30;;
62258;SDS011;48241;48.824;10.102;2022-10-26T16:56:04;11.10;;;2.50;;
62258;SDS011;48241;48.824;10.102;2022-10-26T16:58:34;7.97;;;2.35;;
62258;SDS011;48241;48.824;10.102;2022-10-26T17:01:00;8.57;;;2.20;;
62258;SDS011;48241;48.824;10.102;2022-10-26T17:03:26;6.82;;;2.35;;
62258;SDS011;48241;48.824;10.102;2022-10-26T17:05:58;9.82;;;2.60;;
62258;SDS011;48241;48.824;10.102;2022-10-26T17:08:26;9.27;;;2.40;;
62258;SDS011;48241;48.824;10.102;2022-10-26T17:10:53;5.65;;;2.45;;
62258;SDS011;48241;48.824;10.102;2022-10-26T17:13:19;8.30;;;2.85;;
62258;SDS011;48241;48.824;10.102;2022-10-26T17:15:45;11.43;;;2.72;;
62258;SDS011;48241;48.824;10.102;2022-10-26T17:18:11;8.02;;;2.80;;
62258;SDS011;48241;48.824;10.102;2022-10-26T17:20:38;7.25;;;2.22;;
62258;SDS011;48241;48.824;10.102;2022-10-26T17:23:04;7.10;;;2.55;;
62258;SDS011;48241;48.824;10.102;2022-10-26T17:25:33;13.25;;;2.70;;
62258;SDS011;48241;48.824;10.102;2022-10-26T17:28:00;9.05;;;2.70;;
62258;SDS011;48241;48.824;10.102;2022-10-26T17:30:26;8.95;;;2.70;;
62258;SDS011;48241;48.824;10.102;2022-10-26T17:32:52;7.82;;;2.45;;
62258;SDS011;48241;48.824;10.102;2022-10-26T17:35:18;10.85;;;2.88;;